sensor_id;sensor_type;location;lat;lon;timestamp;temperature;humidity
22956;DHT22;40888;48.148;11.526;2024-03-07T00:00:46;3.80;99.90
22956;DHT22;40888;48.148;11.526;2024-03-07T00:03:13;3.80;99.90
22956;DHT22;40888;48.148;11.526;2024-03-07T00:05:39;3.80;99.90
22956;DHT22;40888;48.148;11.526;2024-03-07T00:08:05;3.80;99.90
22956;DHT22;40888;48.148;11.526;2024-03-07T00:10:31;3.90;99.90
22956;DHT22;40888;48.148;11.526;2024-03-07T00:12:57;3.80;99.90
22956;DHT22;40888;48.148;11.526;2024-03-07T00:15:23;3.80;99.90
22956;DHT22;40888;48.148;11.526;2024-03-07T00:17:48;3.90;99.90
22956;DHT22;40888;48.148;11.526;2024-03-07T00:20:14;3.90;99.90
22956;DHT22;40888;48.148;11.526;2024-03-07T00:22:41;3.90;99.90
22956;DHT22;40888;48.148;11.526;2024-03-07T00:25:07;3.90;99.90
22956;DHT22;40888;48.148;11.526;2024-03-07T00:27:35;3.90;99.90
22956;DHT22;40888;48.148;11.526;2024-03-07T00:30:02;3.90;99.90
22956;DHT22;40888;48.148;11.526;2024-03-07T00:32:28;3.90;99.90
22956;DHT22;40888;48.148;11.526;2024-03-07T00:34:55;3.90;99.90
22956;DHT22;40888;48.148;11.526;2024-03-07T00:37:22;3.90;99.90
22956;DHT22;40888;48.148;11.526;2024-03-07T00:39:50;3.90;99.90
22956;DHT22;40888;48.148;11.526;2024-03-07T00:42:16;3.90;99.90
22956;DHT22;40888;48.148;11.526;2024-03-07T00:44:42;3.90;99.90
22956;DHT22;40888;48.148;11.526;2024-03-07T00:47:08;3.90;99.90
22956;DHT22;40888;48.148;11.526;2024-03-07T00:49:34;3.90;99.90
22956;DHT22;40888;48.148;11.526;2024-03-07T00:52:00;3.90;99.90
22956;DHT22;40888;48.148;11.526;2024-03-07T00:54:26;3.90;99.90
22956;DHT22;40888;48.148;11.526;2024-03-07T00:56:52;3.90;99.90
22956;DHT22;40888;48.148;11.526;2024-03-07T00:59:19;3.90;99.90
22956;DHT22;40888;48.148;11.526;2024-03-07T01:01:45;3.90;99.90
22956;DHT22;40888;48.148;11.526;2024-03-07T01:04:10;3.90;99.90
22956;DHT22;40888;48.148;11.526;2024-03-07T01:06:37;3.90;99.90
22956;DHT22;40888;48.148;11.526;2024-03-07T01:09:03;3.90;99.90
22956;DHT22;40888;48.148;11.526;2024-03-07T01:11:29;3.90;99.90
22956;DHT22;40888;48.148;11.526;2024-03-07T01:13:55;3.90;99.90
22956;DHT22;40888;48.148;11.526;2024-03-07T01:16:21;3.90;99.90
22956;DHT22;40888;48.148;11.526;2024-03-07T01:18:47;3.90;99.90
22956;DHT22;40888;48.148;11.526;2024-03-07T01:21:13;3.90;99.90
22956;DHT22;40888;48.148;11.526;2024-03-07T01:23:38;3.90;99.90
22956;DHT22;40888;48.148;11.526;2024-03-07T01:26:04;3.90;99.90
22956;DHT22;40888;48.148;11.526;2024-03-07T01:28:30;3.90;99.90
22956;DHT22;40888;48.148;11.526;2024-03-07T01:30:57;3.90;99.90
22956;DHT22;40888;48.148;11.526;2024-03-07T01:33:23;3.90;99.90
22956;DHT22;40888;48.148;11.526;2024-03-07T01:35:49;3.90;99.90
22956;DHT22;40888;48.148;11.526;2024-03-07T01:38:15;3.90;99.90
22956;DHT22;40888;48.148;11.526;2024-03-07T01:40:42;3.90;99.90
22956;DHT22;40888;48.148;11.526;2024-03-07T01:43:09;3.90;99.90
22956;DHT22;40888;48.148;11.526;2024-03-07T01:45:36;3.90;99.90
22956;DHT22;40888;48.148;11.526;2024-03-07T01:48:04;3.90;99.90
22956;DHT22;40888;48.148;11.526;2024-03-07T01:50:30;3.90;99.90
22956;DHT22;40888;48.148;11.526;2024-03-07T01:52:56;3.90;99.90
22956;DHT22;40888;48.148;11.526;2024-03-07T01:55:22;4.00;99.90
22956;DHT22;40888;48.148;11.526;2024-03-07T01:57:49;3.90;99.90
22956;DHT22;40888;48.148;11.526;2024-03-07T02:00:15;4.00;99.90
22956;DHT22;40888;48.148;11.526;2024-03-07T02:02:41;3.90;99.90
22956;DHT22;40888;48.148;11.526;2024-03-07T02:05:07;3.90;99.90
22956;DHT22;40888;48.148;11.526;2024-03-07T02:07:33;3.90;99.90
22956;DHT22;40888;48.148;11.526;2024-03-07T02:10:07;4.00;99.90
22956;DHT22;40888;48.148;11.526;2024-03-07T02:12:34;4.00;99.90
22956;DHT22;40888;48.148;11.526;2024-03-07T02:15:00;4.00;99.90
22956;DHT22;40888;48.148;11.526;2024-03-07T02:17:26;4.00;99.90
22956;DHT22;40888;48.148;11.526;2024-03-07T02:19:52;4.00;99.90
22956;DHT22;40888;48.148;11.526;2024-03-07T02:22:19;4.00;99.90
22956;DHT22;40888;48.148;11.526;2024-03-07T02:24:45;4.00;99.90
22956;DHT22;40888;48.148;11.526;2024-03-07T02:27:12;4.00;99.90
22956;DHT22;40888;48.148;11.526;2024-03-07T02:29:40;4.00;99.90
22956;DHT22;40888;48.148;11.526;2024-03-07T02:32:06;3.90;99.90
22956;DHT22;40888;48.148;11.526;2024-03-07T02:34:32;4.00;99.90
22956;DHT22;40888;48.148;11.526;2024-03-07T02:36:57;4.00;99.90
22956;DHT22;40888;48.148;11.526;2024-03-07T02:39:23;4.00;99.90
22956;DHT22;40888;48.148;11.526;2024-03-07T02:41:50;4.10;99.90
22956;DHT22;40888;48.148;11.526;2024-03-07T02:44:16;4.10;99.90
22956;DHT22;40888;48.148;11.526;2024-03-07T02:46:42;4.10;99.90
22956;DHT22;40888;48.148;11.526;2024-03-07T02:49:08;4.10;99.90
22956;DHT22;40888;48.148;11.526;2024-03-07T02:51:35;4.10;99.90
22956;DHT22;40888;48.148;11.526;2024-03-07T02:54:01;4.10;99.90
22956;DHT22;40888;48.148;11.526;2024-03-07T02:56:28;4.10;99.90
22956;DHT22;40888;48.148;11.526;2024-03-07T02:58:54;4.20;99.90
22956;DHT22;40888;48.148;11.526;2024-03-07T03:01:19;4.20;99.90
22956;DHT22;40888;48.148;11.526;2024-03-07T03:03:45;4.20;99.90
22956;DHT22;40888;48.148;11.526;2024-03-07T03:06:11;4.20;99.90
22956;DHT22;40888;48.148;11.526;2024-03-07T03:08:37;4.20;99.90
22956;DHT22;40888;48.148;11.526;2024-03-07T03:11:03;4.20;99.90
22956;DHT22;40888;48.148;11.526;2024-03-07T03:13:29;4.20;99.90
22956;DHT22;40888;48.148;11.526;2024-03-07T03:15:55;4.20;99.90
22956;DHT22;40888;48.148;11.526;2024-03-07T03:18:25;4.20;99.90
22956;DHT22;40888;48.148;11.526;2024-03-07T03:20:50;4.20;99.90
22956;DHT22;40888;48.148;11.526;2024-03-07T03:23:18;4.20;99.90
22956;DHT22;40888;48.148;11.526;2024-03-07T03:25:44;4.20;99.90
22956;DHT22;40888;48.148;11.526;2024-03-07T03:28:10;4.10;99.90
22956;DHT22;40888;48.148;11.526;2024-03-07T03:30:37;4.20;99.90
22956;DHT22;40888;48.148;11.526;2024-03-07T03:33:04;4.20;99.90
22956;DHT22;40888;48.148;11.526;2024-03-07T03:35:29;4.20;99.90
22956;DHT22;40888;48.148;11.526;2024-03-07T03:37:55;4.20;99.90
22956;DHT22;40888;48.148;11.526;2024-03-07T03:40:20;4.20;99.90
22956;DHT22;40888;48.148;11.526;2024-03-07T03:42:46;4.20;99.90
22956;DHT22;40888;48.148;11.526;2024-03-07T03:45:13;4.20;99.90
22956;DHT22;40888;48.148;11.526;2024-03-07T03:47:42;4.20;99.90
22956;DHT22;40888;48.148;11.526;2024-03-07T03:50:09;4.20;99.90
22956;DHT22;40888;48.148;11.526;2024-03-07T03:52:35;4.20;99.90
22956;DHT22;40888;48.148;11.526;2024-03-07T03:55:02;4.10;99.90
22956;DHT22;40888;48.148;11.526;2024-03-07T03:57:30;4.10;99.90
22956;DHT22;40888;48.148;11.526;2024-03-07T03:59:56;4.10;99.90
22956;DHT22;40888;48.148;11.526;2024-03-07T04:02:22;4.10;99.90
22956;DHT22;40888;48.148;11.526;2024-03-07T04:04:48;4.10;99.90
22956;DHT22;40888;48.148;11.526;2024-03-07T04:07:14;4.20;99.90
22956;DHT22;40888;48.148;11.526;2024-03-07T04:09:46;4.10;99.90
22956;DHT22;40888;48.148;11.526;2024-03-07T04:12:13;4.10;99.90
22956;DHT22;40888;48.148;11.526;2024-03-07T04:14:42;4.10;99.90
22956;DHT22;40888;48.148;11.526;2024-03-07T04:17:09;4.10;99.90
22956;DHT22;40888;48.148;11.526;2024-03-07T04:19:39;4.20;99.90
22956;DHT22;40888;48.148;11.526;2024-03-07T04:22:04;4.10;99.90
22956;DHT22;40888;48.148;11.526;2024-03-07T04:24:36;4.00;99.90
22956;DHT22;40888;48.148;11.526;2024-03-07T04:27:02;4.00;99.90
22956;DHT22;40888;48.148;11.526;2024-03-07T04:29:34;4.00;99.90
22956;DHT22;40888;48.148;11.526;2024-03-07T04:32:01;4.00;99.90
22956;DHT22;40888;48.148;11.526;2024-03-07T04:34:27;4.00;99.90
22956;DHT22;40888;48.148;11.526;2024-03-07T04:36:59;4.00;99.90
22956;DHT22;40888;48.148;11.526;2024-03-07T04:39:27;3.90;99.90
22956;DHT22;40888;48.148;11.526;2024-03-07T04:42:00;3.90;99.90
22956;DHT22;40888;48.148;11.526;2024-03-07T04:44:27;3.80;99.90
22956;DHT22;40888;48.148;11.526;2024-03-07T04:46:53;3.80;99.90
22956;DHT22;40888;48.148;11.526;2024-03-07T04:49:24;3.80;99.90
22956;DHT22;40888;48.148;11.526;2024-03-07T04:51:54;3.70;99.90
22956;DHT22;40888;48.148;11.526;2024-03-07T04:54:20;3.70;99.90
22956;DHT22;40888;48.148;11.526;2024-03-07T04:56:46;3.80;99.90
22956;DHT22;40888;48.148;11.526;2024-03-07T04:59:16;3.70;99.90
22956;DHT22;40888;48.148;11.526;2024-03-07T05:01:43;3.70;99.90
22956;DHT22;40888;48.148;11.526;2024-03-07T05:04:11;3.70;99.90
22956;DHT22;40888;48.148;11.526;2024-03-07T05:06:37;3.70;99.90
22956;DHT22;40888;48.148;11.526;2024-03-07T05:09:04;3.60;99.90
22956;DHT22;40888;48.148;11.526;2024-03-07T05:11:32;3.70;99.90
22956;DHT22;40888;48.148;11.526;2024-03-07T05:13:59;3.70;99.90
22956;DHT22;40888;48.148;11.526;2024-03-07T05:16:25;3.70;99.90
22956;DHT22;40888;48.148;11.526;2024-03-07T05:18:51;3.60;99.90
22956;DHT22;40888;48.148;11.526;2024-03-07T05:21:18;3.60;99.90
22956;DHT22;40888;48.148;11.526;2024-03-07T05:24:06;3.50;99.90
22956;DHT22;40888;48.148;11.526;2024-03-07T05:26:34;3.60;99.90
22956;DHT22;40888;48.148;11.526;2024-03-07T05:29:06;3.60;99.90
22956;DHT22;40888;48.148;11.526;2024-03-07T05:31:36;3.50;99.90
22956;DHT22;40888;48.148;11.526;2024-03-07T05:34:03;3.60;99.90
22956;DHT22;40888;48.148;11.526;2024-03-07T05:36:33;3.60;99.90
22956;DHT22;40888;48.148;11.526;2024-03-07T05:38:59;3.50;99.90
22956;DHT22;40888;48.148;11.526;2024-03-07T05:41:25;3.60;99.90
22956;DHT22;40888;48.148;11.526;2024-03-07T05:43:53;3.60;99.90
22956;DHT22;40888;48.148;11.526;2024-03-07T05:46:19;3.50;99.90
22956;DHT22;40888;48.148;11.526;2024-03-07T05:48:45;3.50;99.90
22956;DHT22;40888;48.148;11.526;2024-03-07T05:51:15;3.50;99.90
22956;DHT22;40888;48.148;11.526;2024-03-07T05:53:41;3.50;99.90
22956;DHT22;40888;48.148;11.526;2024-03-07T05:56:07;3.50;99.90
22956;DHT22;40888;48.148;11.526;2024-03-07T05:58:33;3.50;99.90
22956;DHT22;40888;48.148;11.526;2024-03-07T06:00:59;3.60;99.90
22956;DHT22;40888;48.148;11.526;2024-03-07T06:03:25;3.60;99.90
22956;DHT22;40888;48.148;11.526;2024-03-07T06:05:51;3.50;99.90
22956;DHT22;40888;48.148;11.526;2024-03-07T06:08:18;3.50;99.90
22956;DHT22;40888;48.148;11.526;2024-03-07T06:10:44;3.50;99.90
22956;DHT22;40888;48.148;11.526;2024-03-07T06:13:11;3.50;99.90
22956;DHT22;40888;48.148;11.526;2024-03-07T06:15:38;3.50;99.90
22956;DHT22;40888;48.148;11.526;2024-03-07T06:18:05;3.50;99.90
22956;DHT22;40888;48.148;11.526;2024-03-07T06:20:30;3.60;99.90
22956;DHT22;40888;48.148;11.526;2024-03-07T06:22:57;3.60;99.90
22956;DHT22;40888;48.148;11.526;2024-03-07T06:25:23;3.60;99.90
22956;DHT22;40888;48.148;11.526;2024-03-07T06:28:03;3.60;99.90
22956;DHT22;40888;48.148;11.526;2024-03-07T06:30:38;3.60;99.90
22956;DHT22;40888;48.148;11.526;2024-03-07T06:33:05;3.60;99.90
22956;DHT22;40888;48.148;11.526;2024-03-07T06:35:31;3.60;99.90
22956;DHT22;40888;48.148;11.526;2024-03-07T06:37:56;3.60;99.90
22956;DHT22;40888;48.148;11.526;2024-03-07T06:40:22;3.50;99.90
22956;DHT22;40888;48.148;11.526;2024-03-07T06:42:51;3.50;99.90
22956;DHT22;40888;48.148;11.526;2024-03-07T06:45:20;3.50;99.90
22956;DHT22;40888;48.148;11.526;2024-03-07T06:47:45;3.60;99.90
22956;DHT22;40888;48.148;11.526;2024-03-07T06:50:11;3.60;99.90
22956;DHT22;40888;48.148;11.526;2024-03-07T06:52:40;3.60;99.90
22956;DHT22;40888;48.148;11.526;2024-03-07T06:55:06;3.60;99.90
22956;DHT22;40888;48.148;11.526;2024-03-07T06:57:33;3.60;99.90
22956;DHT22;40888;48.148;11.526;2024-03-07T06:59:59;3.70;99.90
22956;DHT22;40888;48.148;11.526;2024-03-07T07:02:25;3.70;99.90
22956;DHT22;40888;48.148;11.526;2024-03-07T07:04:53;3.70;99.90
22956;DHT22;40888;48.148;11.526;2024-03-07T07:07:19;3.60;99.90
22956;DHT22;40888;48.148;11.526;2024-03-07T07:09:45;3.60;99.90
22956;DHT22;40888;48.148;11.526;2024-03-07T07:12:11;3.70;99.90
22956;DHT22;40888;48.148;11.526;2024-03-07T07:14:37;3.70;99.90
22956;DHT22;40888;48.148;11.526;2024-03-07T07:17:04;3.70;99.90
22956;DHT22;40888;48.148;11.526;2024-03-07T07:19:30;3.70;99.90
22956;DHT22;40888;48.148;11.526;2024-03-07T07:21:56;3.70;99.90
22956;DHT22;40888;48.148;11.526;2024-03-07T07:24:22;3.70;99.90
22956;DHT22;40888;48.148;11.526;2024-03-07T07:26:52;3.70;99.90
22956;DHT22;40888;48.148;11.526;2024-03-07T07:29:18;3.60;99.90
22956;DHT22;40888;48.148;11.526;2024-03-07T07:31:44;3.70;99.90
22956;DHT22;40888;48.148;11.526;2024-03-07T07:34:10;3.70;99.90
22956;DHT22;40888;48.148;11.526;2024-03-07T07:36:36;3.70;99.90
22956;DHT22;40888;48.148;11.526;2024-03-07T07:39:02;3.70;99.90
22956;DHT22;40888;48.148;11.526;2024-03-07T07:41:28;3.70;99.90
22956;DHT22;40888;48.148;11.526;2024-03-07T07:43:56;3.70;99.90
22956;DHT22;40888;48.148;11.526;2024-03-07T07:46:22;3.80;99.90
22956;DHT22;40888;48.148;11.526;2024-03-07T07:48:48;3.80;99.90
22956;DHT22;40888;48.148;11.526;2024-03-07T07:51:14;3.80;99.90
22956;DHT22;40888;48.148;11.526;2024-03-07T07:53:39;3.80;99.90
22956;DHT22;40888;48.148;11.526;2024-03-07T07:56:06;3.80;99.90
22956;DHT22;40888;48.148;11.526;2024-03-07T07:58:33;3.90;99.90
22956;DHT22;40888;48.148;11.526;2024-03-07T08:00:58;4.00;99.90
22956;DHT22;40888;48.148;11.526;2024-03-07T08:03:24;4.00;99.90
22956;DHT22;40888;48.148;11.526;2024-03-07T08:05:50;4.00;99.90
22956;DHT22;40888;48.148;11.526;2024-03-07T08:08:15;4.10;99.90
22956;DHT22;40888;48.148;11.526;2024-03-07T08:10:43;4.00;99.90
22956;DHT22;40888;48.148;11.526;2024-03-07T08:13:11;3.90;99.90
22956;DHT22;40888;48.148;11.526;2024-03-07T08:15:39;4.00;99.90
22956;DHT22;40888;48.148;11.526;2024-03-07T08:18:05;4.00;99.90
22956;DHT22;40888;48.148;11.526;2024-03-07T08:20:37;3.90;99.90
22956;DHT22;40888;48.148;11.526;2024-03-07T08:23:04;4.00;99.90
22956;DHT22;40888;48.148;11.526;2024-03-07T08:25:30;4.00;99.90
22956;DHT22;40888;48.148;11.526;2024-03-07T08:27:59;4.10;99.90
22956;DHT22;40888;48.148;11.526;2024-03-07T08:30:26;4.10;99.90
22956;DHT22;40888;48.148;11.526;2024-03-07T08:32:55;4.20;99.90
22956;DHT22;40888;48.148;11.526;2024-03-07T08:35:21;4.30;99.90
22956;DHT22;40888;48.148;11.526;2024-03-07T08:37:49;4.30;99.90
22956;DHT22;40888;48.148;11.526;2024-03-07T08:40:19;4.40;99.90
22956;DHT22;40888;48.148;11.526;2024-03-07T08:42:49;4.50;99.90
22956;DHT22;40888;48.148;11.526;2024-03-07T08:45:19;4.40;99.90
22956;DHT22;40888;48.148;11.526;2024-03-07T08:47:46;4.50;99.90
22956;DHT22;40888;48.148;11.526;2024-03-07T08:50:13;4.50;99.90
22956;DHT22;40888;48.148;11.526;2024-03-07T08:52:40;4.50;99.90
22956;DHT22;40888;48.148;11.526;2024-03-07T08:55:07;4.50;99.90
22956;DHT22;40888;48.148;11.526;2024-03-07T08:57:37;4.50;99.90
22956;DHT22;40888;48.148;11.526;2024-03-07T09:00:04;4.60;99.90
22956;DHT22;40888;48.148;11.526;2024-03-07T09:02:57;4.80;99.90
22956;DHT22;40888;48.148;11.526;2024-03-07T09:05:23;4.80;99.90
22956;DHT22;40888;48.148;11.526;2024-03-07T09:07:50;4.90;99.90
22956;DHT22;40888;48.148;11.526;2024-03-07T09:10:16;4.80;99.90
22956;DHT22;40888;48.148;11.526;2024-03-07T09:12:46;5.00;99.90
22956;DHT22;40888;48.148;11.526;2024-03-07T09:15:14;4.90;99.90
22956;DHT22;40888;48.148;11.526;2024-03-07T09:17:41;5.00;99.90
22956;DHT22;40888;48.148;11.526;2024-03-07T09:20:08;4.90;99.90
22956;DHT22;40888;48.148;11.526;2024-03-07T09:25:08;5.00;99.90
22956;DHT22;40888;48.148;11.526;2024-03-07T09:27:34;5.10;99.90
22956;DHT22;40888;48.148;11.526;2024-03-07T09:29:59;5.10;99.90
22956;DHT22;40888;48.148;11.526;2024-03-07T09:32:25;5.10;99.90
22956;DHT22;40888;48.148;11.526;2024-03-07T09:34:51;5.10;99.90
22956;DHT22;40888;48.148;11.526;2024-03-07T09:37:16;5.10;99.90
22956;DHT22;40888;48.148;11.526;2024-03-07T09:39:43;5.10;99.90
22956;DHT22;40888;48.148;11.526;2024-03-07T09:42:09;5.20;99.90
22956;DHT22;40888;48.148;11.526;2024-03-07T09:44:42;5.40;99.90
22956;DHT22;40888;48.148;11.526;2024-03-07T09:47:09;5.40;99.90
22956;DHT22;40888;48.148;11.526;2024-03-07T09:49:36;5.50;99.90
22956;DHT22;40888;48.148;11.526;2024-03-07T09:52:06;5.40;99.90
22956;DHT22;40888;48.148;11.526;2024-03-07T09:54:34;5.50;99.90
22956;DHT22;40888;48.148;11.526;2024-03-07T09:57:03;5.60;99.90
22956;DHT22;40888;48.148;11.526;2024-03-07T09:59:36;5.70;99.90
22956;DHT22;40888;48.148;11.526;2024-03-07T10:02:09;5.80;99.90
22956;DHT22;40888;48.148;11.526;2024-03-07T10:04:43;6.10;99.90
22956;DHT22;40888;48.148;11.526;2024-03-07T10:07:18;6.10;99.90
22956;DHT22;40888;48.148;11.526;2024-03-07T10:09:44;6.10;99.90
22956;DHT22;40888;48.148;11.526;2024-03-07T10:12:10;5.90;99.90
22956;DHT22;40888;48.148;11.526;2024-03-07T10:14:56;6.00;99.90
22956;DHT22;40888;48.148;11.526;2024-03-07T10:17:25;6.10;99.90
22956;DHT22;40888;48.148;11.526;2024-03-07T10:19:54;6.20;99.90
22956;DHT22;40888;48.148;11.526;2024-03-07T10:22:21;6.10;99.90
22956;DHT22;40888;48.148;11.526;2024-03-07T10:24:55;6.30;99.90
22956;DHT22;40888;48.148;11.526;2024-03-07T10:27:27;6.40;99.90
22956;DHT22;40888;48.148;11.526;2024-03-07T10:29:54;6.40;99.90
22956;DHT22;40888;48.148;11.526;2024-03-07T10:32:23;6.40;99.90
22956;DHT22;40888;48.148;11.526;2024-03-07T10:34:53;6.40;99.90
22956;DHT22;40888;48.148;11.526;2024-03-07T10:37:19;6.40;99.90
22956;DHT22;40888;48.148;11.526;2024-03-07T10:39:50;6.30;99.90
22956;DHT22;40888;48.148;11.526;2024-03-07T10:42:17;6.30;99.90
22956;DHT22;40888;48.148;11.526;2024-03-07T10:44:48;6.30;99.90
22956;DHT22;40888;48.148;11.526;2024-03-07T10:47:18;6.30;99.90
22956;DHT22;40888;48.148;11.526;2024-03-07T10:50:17;6.40;99.90
22956;DHT22;40888;48.148;11.526;2024-03-07T10:52:58;6.40;99.90
22956;DHT22;40888;48.148;11.526;2024-03-07T10:55:53;6.40;99.90
22956;DHT22;40888;48.148;11.526;2024-03-07T11:01:15;6.60;99.90
22956;DHT22;40888;48.148;11.526;2024-03-07T11:03:42;6.50;99.90
22956;DHT22;40888;48.148;11.526;2024-03-07T11:06:08;6.60;99.90
22956;DHT22;40888;48.148;11.526;2024-03-07T11:08:37;6.60;99.90
22956;DHT22;40888;48.148;11.526;2024-03-07T11:11:04;6.60;99.90
22956;DHT22;40888;48.148;11.526;2024-03-07T11:13:33;6.60;99.90
22956;DHT22;40888;48.148;11.526;2024-03-07T11:16:00;6.60;99.90
22956;DHT22;40888;48.148;11.526;2024-03-07T11:18:27;6.60;99.90
22956;DHT22;40888;48.148;11.526;2024-03-07T11:20:52;6.70;99.90
22956;DHT22;40888;48.148;11.526;2024-03-07T11:28:29;6.70;99.90
22956;DHT22;40888;48.148;11.526;2024-03-07T11:31:12;6.80;99.90
22956;DHT22;40888;48.148;11.526;2024-03-07T11:33:38;7.00;99.90
22956;DHT22;40888;48.148;11.526;2024-03-07T11:36:08;7.20;99.90
22956;DHT22;40888;48.148;11.526;2024-03-07T11:38:34;7.30;99.90
22956;DHT22;40888;48.148;11.526;2024-03-07T11:41:01;7.50;99.90
22956;DHT22;40888;48.148;11.526;2024-03-07T11:43:33;7.70;99.90
22956;DHT22;40888;48.148;11.526;2024-03-07T11:46:01;8.00;99.90
22956;DHT22;40888;48.148;11.526;2024-03-07T11:48:27;8.00;99.90
22956;DHT22;40888;48.148;11.526;2024-03-07T11:50:53;8.00;99.90
22956;DHT22;40888;48.148;11.526;2024-03-07T11:53:20;8.10;99.90
22956;DHT22;40888;48.148;11.526;2024-03-07T11:55:47;8.00;99.90
22956;DHT22;40888;48.148;11.526;2024-03-07T11:58:20;8.20;99.90
22956;DHT22;40888;48.148;11.526;2024-03-07T12:00:50;8.30;99.90
22956;DHT22;40888;48.148;11.526;2024-03-07T12:03:20;8.20;99.90
22956;DHT22;40888;48.148;11.526;2024-03-07T12:05:51;8.30;99.90
22956;DHT22;40888;48.148;11.526;2024-03-07T12:08:18;8.20;99.90
22956;DHT22;40888;48.148;11.526;2024-03-07T12:10:44;8.10;99.90
22956;DHT22;40888;48.148;11.526;2024-03-07T12:13:13;7.90;99.90
22956;DHT22;40888;48.148;11.526;2024-03-07T12:15:41;7.80;99.90
22956;DHT22;40888;48.148;11.526;2024-03-07T12:18:09;7.80;99.90
22956;DHT22;40888;48.148;11.526;2024-03-07T12:20:36;7.70;99.90
22956;DHT22;40888;48.148;11.526;2024-03-07T12:23:03;7.60;99.90
22956;DHT22;40888;48.148;11.526;2024-03-07T12:25:35;7.50;99.90
22956;DHT22;40888;48.148;11.526;2024-03-07T12:28:05;7.50;99.90
22956;DHT22;40888;48.148;11.526;2024-03-07T12:30:35;7.40;99.90
22956;DHT22;40888;48.148;11.526;2024-03-07T12:33:04;7.40;99.90
22956;DHT22;40888;48.148;11.526;2024-03-07T12:35:31;7.30;99.90
22956;DHT22;40888;48.148;11.526;2024-03-07T12:37:58;7.30;99.90
22956;DHT22;40888;48.148;11.526;2024-03-07T12:40:26;7.30;99.90
22956;DHT22;40888;48.148;11.526;2024-03-07T12:42:54;7.20;99.90
22956;DHT22;40888;48.148;11.526;2024-03-07T12:45:20;7.20;99.90
22956;DHT22;40888;48.148;11.526;2024-03-07T12:47:47;7.20;99.90
22956;DHT22;40888;48.148;11.526;2024-03-07T12:50:17;7.10;99.90
22956;DHT22;40888;48.148;11.526;2024-03-07T12:52:43;7.20;99.90
22956;DHT22;40888;48.148;11.526;2024-03-07T12:55:09;7.30;99.90
22956;DHT22;40888;48.148;11.526;2024-03-07T12:57:35;7.30;99.90
22956;DHT22;40888;48.148;11.526;2024-03-07T13:00:06;7.20;99.90
22956;DHT22;40888;48.148;11.526;2024-03-07T13:02:42;7.20;99.90
22956;DHT22;40888;48.148;11.526;2024-03-07T13:05:10;7.20;99.90
22956;DHT22;40888;48.148;11.526;2024-03-07T13:07:47;7.30;99.90
22956;DHT22;40888;48.148;11.526;2024-03-07T13:10:16;7.30;99.90
22956;DHT22;40888;48.148;11.526;2024-03-07T13:12:46;7.40;99.90
22956;DHT22;40888;48.148;11.526;2024-03-07T13:15:12;7.50;99.90
22956;DHT22;40888;48.148;11.526;2024-03-07T13:17:38;7.60;99.90
22956;DHT22;40888;48.148;11.526;2024-03-07T13:20:04;7.60;99.90
22956;DHT22;40888;48.148;11.526;2024-03-07T13:22:43;7.60;99.90
22956;DHT22;40888;48.148;11.526;2024-03-07T13:25:17;7.70;99.90
22956;DHT22;40888;48.148;11.526;2024-03-07T13:28:02;7.70;99.90
22956;DHT22;40888;48.148;11.526;2024-03-07T13:30:29;7.70;99.90
22956;DHT22;40888;48.148;11.526;2024-03-07T13:32:59;7.70;99.90
22956;DHT22;40888;48.148;11.526;2024-03-07T13:35:26;7.70;99.90
22956;DHT22;40888;48.148;11.526;2024-03-07T13:37:53;7.50;99.90
22956;DHT22;40888;48.148;11.526;2024-03-07T13:40:26;7.60;99.90
22956;DHT22;40888;48.148;11.526;2024-03-07T13:42:57;7.60;99.90
22956;DHT22;40888;48.148;11.526;2024-03-07T13:45:27;7.60;99.90
22956;DHT22;40888;48.148;11.526;2024-03-07T13:47:56;7.60;99.90
22956;DHT22;40888;48.148;11.526;2024-03-07T13:50:25;7.60;99.90
22956;DHT22;40888;48.148;11.526;2024-03-07T13:52:52;7.80;99.90
22956;DHT22;40888;48.148;11.526;2024-03-07T13:58:41;7.70;99.90
22956;DHT22;40888;48.148;11.526;2024-03-07T14:01:23;7.70;99.90
22956;DHT22;40888;48.148;11.526;2024-03-07T14:09:43;7.50;99.90
22956;DHT22;40888;48.148;11.526;2024-03-07T14:24:16;7.40;99.90
22956;DHT22;40888;48.148;11.526;2024-03-07T14:32:29;7.50;99.90
22956;DHT22;40888;48.148;11.526;2024-03-07T14:35:13;7.50;99.90
22956;DHT22;40888;48.148;11.526;2024-03-07T14:40:37;7.30;99.90
22956;DHT22;40888;48.148;11.526;2024-03-07T14:43:04;7.20;99.90
22956;DHT22;40888;48.148;11.526;2024-03-07T14:45:41;7.10;99.90
22956;DHT22;40888;48.148;11.526;2024-03-07T14:48:07;7.10;99.90
22956;DHT22;40888;48.148;11.526;2024-03-07T14:50:38;7.00;99.90
22956;DHT22;40888;48.148;11.526;2024-03-07T14:53:06;7.00;99.90
22956;DHT22;40888;48.148;11.526;2024-03-07T14:55:32;7.00;99.90
22956;DHT22;40888;48.148;11.526;2024-03-07T14:57:59;7.00;99.90
22956;DHT22;40888;48.148;11.526;2024-03-07T15:00:25;7.00;99.90
22956;DHT22;40888;48.148;11.526;2024-03-07T15:02:55;7.00;99.90
22956;DHT22;40888;48.148;11.526;2024-03-07T15:05:25;6.90;99.90
22956;DHT22;40888;48.148;11.526;2024-03-07T15:07:52;7.00;99.90
22956;DHT22;40888;48.148;11.526;2024-03-07T15:10:23;7.00;99.90
22956;DHT22;40888;48.148;11.526;2024-03-07T15:12:52;6.90;99.90
22956;DHT22;40888;48.148;11.526;2024-03-07T15:15:19;7.00;99.90
22956;DHT22;40888;48.148;11.526;2024-03-07T15:17:48;7.00;99.90
22956;DHT22;40888;48.148;11.526;2024-03-07T15:20:14;7.00;99.90
22956;DHT22;40888;48.148;11.526;2024-03-07T15:22:52;7.00;99.90
22956;DHT22;40888;48.148;11.526;2024-03-07T15:25:19;7.00;99.90
22956;DHT22;40888;48.148;11.526;2024-03-07T15:27:45;6.90;99.90
22956;DHT22;40888;48.148;11.526;2024-03-07T15:30:15;6.90;99.90
22956;DHT22;40888;48.148;11.526;2024-03-07T15:32:41;6.90;99.90
22956;DHT22;40888;48.148;11.526;2024-03-07T15:35:12;7.00;99.90
22956;DHT22;40888;48.148;11.526;2024-03-07T15:37:48;7.00;99.90
22956;DHT22;40888;48.148;11.526;2024-03-07T15:40:15;7.00;99.90
22956;DHT22;40888;48.148;11.526;2024-03-07T15:42:42;6.90;99.90
22956;DHT22;40888;48.148;11.526;2024-03-07T15:45:12;6.90;99.90
22956;DHT22;40888;48.148;11.526;2024-03-07T15:47:58;7.00;99.90
22956;DHT22;40888;48.148;11.526;2024-03-07T15:50:25;7.00;99.90
22956;DHT22;40888;48.148;11.526;2024-03-07T15:52:55;7.00;99.90
22956;DHT22;40888;48.148;11.526;2024-03-07T15:55:21;7.00;99.90
22956;DHT22;40888;48.148;11.526;2024-03-07T15:57:54;6.90;99.90
22956;DHT22;40888;48.148;11.526;2024-03-07T16:00:22;6.90;99.90
22956;DHT22;40888;48.148;11.526;2024-03-07T16:05:29;6.80;99.90
22956;DHT22;40888;48.148;11.526;2024-03-07T16:08:10;6.70;99.90
22956;DHT22;40888;48.148;11.526;2024-03-07T16:10:38;6.70;99.90
22956;DHT22;40888;48.148;11.526;2024-03-07T16:13:07;6.60;99.90
22956;DHT22;40888;48.148;11.526;2024-03-07T16:15:34;6.60;99.90
22956;DHT22;40888;48.148;11.526;2024-03-07T16:18:00;6.60;99.90